KCXU

Camilla-Mitchell County Airport

Camilla, Georgia, USA
METAR KCXU 221735Z AUTO 19007KT 10SM SCT024 SCT035 BKN050 28/23 A3008 RMK AO1 T02840225
Observed Flight Rules
May-22 @ 17:35 UTC (17 minutes ago) Visual Flight Rules
Wind Visibility Clouds
190° at 7 knots 10 miles
  • Scattered at 2,400' AGL
  • Scattered at 3,500' AGL
  • Broken at 5,000' AGL
Temperatures Readings
Current 28°C / 82°F
Dewpoint 23°C / 73°F
Humidity 74%
Altimeter 30.08" Hg
Pressure 1019 hPa
Elevation 53
METAR KCXU 221735Z AUTO 19007KT 10SM SCT024 SCT035 BKN050 28/23 A3008 RMK AO1 T02840225
Observed Flight Rules
May-22 @ 17:35 UTC
(17 minutes ago)
VFR
Wind Visibility
190° at 7 knots 10 miles
Clouds
  • Scattered at 2,400' AGL
  • Scattered at 3,500' AGL
  • Broken at 5,000' AGL
Temperature Dewpoint
28°C / 82°F 23°C / 73°F
Humidity Altimeter Pressure
74% 30.08" Hg 1019 hPa